x

Buoy I01 - Eastern Maine Shelf (44034) Wave Buoy

4:04 - Sat 25th Feb 2017 All times are EST. -5 hours from GMT.

  • Sig Wave height 3.0ft
  • Peak Period 5s
  • Wind
    9mph, 11mph gusts
  • Sea Temp 40°f
  • Luft Temp 45°f
  • Sea Pressure 1006.5mb
  • Buoy I01 - Eastern Maine Shelf
  • Buoy I01 - Eastern Maine Shelf

More Historic Weather Station data

Upgrade to MSW Pro to gain access to the past 30 days of data for over 8000 Wavebouys and Weather Stations around the globe.

Join Pro

Comparision Forecast

View Surf forecast
   
Sa 02/25 4:04 3ft 5s 9 11 mph 1006.5mb 40f 45f
3:04 3ft 5s 13
mph
1007.4mb 40f 45f
2:04 3ft 5s 16 18 mph 1007.8mb 40f 45f
1:04 2.5ft 5s 13 16 mph 1008.4mb 40f 46f
12:04 2.5ft 5s 9 11 mph 1009.6mb 40f 45f
11:04 3.5ft 5s 13 16 mph 1010.5mb 40f 45f
10:04 3ft 5s 16 18 mph 1011mb 40f 45f
9:04 4.5ft 11s 13 16 mph 1011.5mb 40f 44f
8:04 3.5ft 5s 16 18 mph 1011.5mb 40f 44f
7:04 3.5ft 5s 4
mph
1011.9mb 40f 44f
4:04 3.5ft 5s 18 22 mph 1011.9mb 40f 43f
3:04 4.5ft 5s 13 18 mph 1011.5mb 40f 43f
2:04 4ft 5s 9
mph
1011.9mb 39f 44f
1:04 4.5ft 6s  -  mph - 39f -
12:04 4.5ft 5s  -  mph - 40f -
Fr 02/24 11:04 4.5ft 5s  -  mph - 40f -
8:04 2.5ft 5s 11 13 mph 1011.5mb 40f 45f
7:04 3ft 5s 9 11 mph 1011.5mb 40f 44f
6:04 3.5ft 6s 11
mph
1011.6mb 40f 43f
5:04 3ft 6s 7 9 mph 1011.8mb 40f 43f
4:04 3ft 5s 7
mph
1011.6mb 39f 42f
3:04 3.5ft 6s 11 16 mph 1012.1mb 40f 43f
2:04 3.5ft 6s 7 9 mph 1012.2mb 40f 42f
1:04 4ft 6s 7 9 mph 1012.2mb 41f 43f
12:04 3.5ft 6s 4 7 mph 1013mb 41f 43f
11:04 4.5ft 6s 2 4 mph 1014mb 41f 43f
10:04 4ft 6s 4 7 mph 1014.1mb 40f 44f
9:04 4.5ft 6s 4
mph
1013.2mb 40f 43f
8:04 4.5ft 6s 4 7 mph 1013mb 40f 42f
7:04 5ft 6s 7 9 mph 1013.1mb 40f 42f
6:04 5ft 6s 9
mph
1012.2mb 40f 42f
5:04 5ft 6s 7
mph
1011.6mb 40f 42f
4:04 4.5ft 6s 9 11 mph 1010.5mb 40f 42f
3:04 5.5ft 6s 13 16 mph 1010mb 40f 43f
2:04 5.5ft 6s 11 13 mph 1009.4mb 40f 43f
1:04 5ft 6s 11 13 mph 1008.8mb 40f 43f
12:04 6ft 6s 18 20 mph 1008mb 40f 44f
Do 02/23 11:04 5.5ft 5s 18 22 mph 1007.1mb 40f 45f
10:04 5ft 6s 20 25 mph 1006.7mb 40f 45f
9:04 5ft 5s 20 27 mph 1006.7mb 40f 44f
8:04 4.5ft 5s 22 27 mph 1006.8mb 40f 44f
7:04 4.5ft 5s 20 25 mph 1006.6mb 40f 43f
6:04 3.5ft 5s 9 11 mph 1007.7mb 40f 42f
5:04 3.5ft 5s 16 20 mph 1006.4mb 40f 41f
4:04 3.5ft 5s 13 16 mph 1007.3mb 40f 41f
3:04 4ft 5s 16 18 mph 1007.9mb 40f 41f
2:04 4ft 5s 13 18 mph 1008.5mb 40f 40f
1:04 3.5ft 5s 18 20 mph 1008.7mb 40f 40f
12:04 3ft 5s 16 18 mph 1009.6mb 40f 40f
11:04 4ft 8s 20 25 mph 1009.9mb 40f 39f
10:04 2ft 3s 13 18 mph 1010.5mb 40f 40f
9:04 3.5ft 11s 13 16 mph 1011.2mb 40f 41f
8:04 0.7ft  -  13 16 mph 1011.2mb 40f 41f
7:04 2.5ft 11s 9 11 mph 1011.2mb 40f 40f
6:04 2.5ft 11s 9 11 mph 1011mb 40f 40f
5:04 2.5ft 11s 7
mph
1011.1mb 40f 41f
Mi 02/22 5:04 4ft 5s 16 18 mph 1016.4mb 40f 40f
4:04 3.5ft 5s 18 20 mph 1016.5mb 40f 40f
3:04 3ft 5s 16 18 mph 1016.8mb 40f 39f
2:04 3ft 4s 16 18 mph 1017.9mb 40f 39f
1:04 2.5ft 4s 16 18 mph 1018.9mb 40f 38f
12:04 2.5ft 4s 16 20 mph 1019.2mb 40f 38f
Di 02/21 11:04 1.6ft 3s 16 18 mph 1019.7mb 40f 36f